createdAt,value
2023-01-08T00:00:30.780Z,100258.34
2023-01-08T00:02:59.334Z,100254.84
2023-01-08T00:05:27.944Z,100253.13
2023-01-08T00:07:56.330Z,100238.28
2023-01-08T00:10:24.901Z,100226.91
2023-01-08T00:12:53.524Z,100235.66
2023-01-08T00:15:23.400Z,100229.56
2023-01-08T00:17:51.930Z,100229.59
2023-01-08T00:20:20.558Z,100245.31
2023-01-08T00:22:50.832Z,100217.41
2023-01-08T00:25:20.170Z,100221.78
2023-01-08T00:27:48.812Z,100228.81
2023-01-08T00:30:17.543Z,100234.06
2023-01-08T00:32:47.326Z,100224.47
2023-01-08T00:35:16.059Z,100222.69
2023-01-08T00:37:44.753Z,100230.53
2023-01-08T00:40:13.405Z,100229.66
2023-01-08T00:42:41.924Z,100225.28
2023-01-08T00:45:11.703Z,100221.81
2023-01-08T00:47:40.056Z,100218.31
2023-01-08T00:50:11.133Z,100231.41
2023-01-08T00:52:39.824Z,100220.84
2023-01-08T00:55:09.630Z,100219.06
2023-01-08T00:57:40.047Z,100217.25
2023-01-08T01:00:13.263Z,100213.75
2023-01-08T01:02:42.555Z,100206.72
2023-01-08T01:05:15.479Z,100218.94
2023-01-08T01:07:45.352Z,100224.22
2023-01-08T01:10:16.577Z,100219.03
2023-01-08T01:12:45.995Z,100219.09
2023-01-08T01:15:17.021Z,100218.28
2023-01-08T01:17:47.234Z,100214.78
2023-01-08T01:20:18.295Z,100208.72
2023-01-08T01:22:46.761Z,100220.97
2023-01-08T01:25:15.446Z,100214.84
2023-01-08T01:27:43.975Z,100226.22
2023-01-08T01:30:13.820Z,100220.09
2023-01-08T01:32:42.308Z,100205.28
2023-01-08T01:35:11.299Z,100206.16
2023-01-08T01:37:41.303Z,100200.94
2023-01-08T01:40:11.240Z,100182.66
2023-01-08T01:42:44.091Z,100201.84
2023-01-08T01:45:21.194Z,100204.47
2023-01-08T01:47:56.204Z,100199.31
2023-01-08T01:50:30.799Z,100200.13
2023-01-08T01:53:05.974Z,100197.50
2023-01-08T01:55:37.150Z,100208.84
2023-01-08T01:58:12.118Z,100194.06
2023-01-08T02:00:40.681Z,100181.84
2023-01-08T02:03:11.542Z,100187.09
2023-01-08T02:05:49.759Z,100196.72
2023-01-08T02:08:28.282Z,100195.00
2023-01-08T02:11:07.744Z,100198.53
2023-01-08T02:13:40.211Z,100203.75
2023-01-08T02:16:15.993Z,100216.00
2023-01-08T02:18:50.157Z,100214.25
2023-01-08T02:21:24.784Z,100205.56
2023-01-08T02:24:05.567Z,100202.09
2023-01-08T02:26:37.424Z,100200.41
2023-01-08T02:29:10.099Z,100188.25
2023-01-08T02:31:41.264Z,100193.50
2023-01-08T02:34:10.763Z,100190.03
2023-01-08T02:36:41.556Z,100196.13
2023-01-08T02:39:44.181Z,100208.34
2023-01-08T02:42:24.128Z,100201.41
2023-01-08T02:45:02.257Z,100200.53
2023-01-08T02:47:37.760Z,100195.28
2023-01-08T02:50:17.170Z,100202.25
2023-01-08T02:52:55.677Z,100211.88
2023-01-08T02:55:27.750Z,100204.03
2023-01-08T02:57:58.473Z,100198.84
2023-01-08T03:00:28.096Z,100207.53
2023-01-08T03:03:07.563Z,100218.84
2023-01-08T03:05:36.766Z,100211.91
2023-01-08T03:08:06.032Z,100214.50
2023-01-08T03:10:34.907Z,100211.88
2023-01-08T03:13:11.794Z,100195.34
2023-01-08T03:15:48.134Z,100204.03
2023-01-08T03:18:20.924Z,100190.97
2023-01-08T03:20:51.171Z,100191.88
2023-01-08T03:23:21.162Z,100200.59
2023-01-08T03:25:49.770Z,100189.25
2023-01-08T03:28:25.259Z,100199.72
2023-01-08T03:30:56.105Z,100197.13
2023-01-08T03:33:26.809Z,100194.50
2023-01-08T03:35:57.599Z,100205.81
2023-01-08T03:38:30.780Z,100200.59
2023-01-08T03:41:05.314Z,100191.88
2023-01-08T03:43:35.399Z,100191.00
2023-01-08T03:46:09.568Z,100182.28
2023-01-08T03:48:39.358Z,100194.47
2023-01-08T03:51:10.323Z,100183.13
2023-01-08T03:53:39.263Z,100189.25
2023-01-08T03:56:08.788Z,100167.47
2023-01-08T03:58:38.733Z,100165.72
2023-01-08T04:01:07.697Z,100169.25
2023-01-08T04:03:36.393Z,100169.22
2023-01-08T04:06:05.166Z,100166.59
2023-01-08T04:08:33.818Z,100160.50
2023-01-08T04:11:02.261Z,100152.66
2023-01-08T04:13:30.706Z,100163.94
2023-01-08T04:16:02.011Z,100163.94
2023-01-08T04:18:30.472Z,100165.66
2023-01-08T04:20:59.087Z,100160.41
2023-01-08T04:23:27.659Z,100142.97
2023-01-08T04:25:56.148Z,100153.41
2023-01-08T04:28:24.835Z,100149.88
2023-01-08T04:30:53.372Z,100135.97
2023-01-08T04:33:23.439Z,100137.66
2023-01-08T04:35:52.426Z,100150.72
2023-01-08T04:38:20.896Z,100148.06
2023-01-08T04:40:49.416Z,100147.19
2023-01-08T04:43:17.864Z,100144.56
2023-01-08T04:45:46.357Z,100122.75
2023-01-08T04:48:14.938Z,100127.94
2023-01-08T04:50:44.796Z,100136.63
2023-01-08T04:53:13.245Z,100125.28
2023-01-08T04:55:41.706Z,100113.06
2023-01-08T04:58:10.330Z,100126.94
2023-01-08T05:00:40.961Z,100119.94
2023-01-08T05:03:09.536Z,100123.44
2023-01-08T05:05:39.616Z,100116.47
2023-01-08T05:08:09.504Z,100125.19
2023-01-08T05:10:37.910Z,100118.19
2023-01-08T05:13:06.501Z,100117.34
2023-01-08T05:15:35.027Z,100119.94
2023-01-08T05:18:05.583Z,100118.19
2023-01-08T05:20:34.898Z,100119.91
2023-01-08T05:23:03.457Z,100113.81
2023-01-08T05:25:33.499Z,100107.72
2023-01-08T05:28:02.081Z,100110.34
2023-01-08T05:30:31.142Z,100093.81
2023-01-08T05:32:59.781Z,100105.09
2023-01-08T05:35:28.389Z,100100.78
2023-01-08T05:37:56.784Z,100100.78
2023-01-08T05:40:25.294Z,100093.81
2023-01-08T05:42:55.246Z,100086.88
2023-01-08T05:45:23.800Z,100079.03
2023-01-08T05:47:52.232Z,100086.06
2023-01-08T05:50:20.653Z,100094.81
2023-01-08T05:52:49.258Z,100102.69
2023-01-08T05:55:17.853Z,100091.34
2023-01-08T05:57:46.325Z,100095.72
2023-01-08T06:00:17.518Z,100084.44
2023-01-08T06:02:48.651Z,100088.78
2023-01-08T06:05:17.484Z,100092.25
2023-01-08T06:07:46.130Z,100089.63
2023-01-08T06:10:14.839Z,100092.28
2023-01-08T06:12:43.413Z,100095.75
2023-01-08T06:15:13.984Z,100091.41
2023-01-08T06:17:44.344Z,100097.50
2023-01-08T06:20:13.636Z,100101.00
2023-01-08T06:22:42.225Z,100112.31
2023-01-08T06:25:11.382Z,100107.09
2023-01-08T06:27:40.670Z,100113.19
2023-01-08T06:30:10.732Z,100108.81
2023-01-08T06:32:39.098Z,100107.94
2023-01-08T06:35:10.567Z,100109.69
2023-01-08T06:37:39.132Z,100109.69
2023-01-08T06:40:09.297Z,100106.22
2023-01-08T06:42:37.714Z,100101.88
2023-01-08T06:45:08.160Z,100104.47
2023-01-08T06:47:36.538Z,100109.72
2023-01-08T06:50:07.316Z,100101.91
2023-01-08T06:52:37.384Z,100104.53
2023-01-08T06:55:07.200Z,100104.53
2023-01-08T06:57:35.612Z,100096.69
2023-01-08T07:00:04.816Z,100104.56
2023-01-08T07:02:33.547Z,100106.31
2023-01-08T07:05:02.167Z,100103.72
2023-01-08T07:07:30.643Z,100099.34
2023-01-08T07:10:00.639Z,100099.38
2023-01-08T07:12:29.026Z,100091.53
2023-01-08T07:14:57.776Z,100092.44
2023-01-08T07:17:26.265Z,100092.47
2023-01-08T07:19:54.736Z,100093.31
2023-01-08T07:22:24.315Z,100110.75
2023-01-08T07:24:52.768Z,100101.19
2023-01-08T07:27:22.627Z,100112.53
2023-01-08T07:29:51.477Z,100104.72
2023-01-08T07:32:19.877Z,100104.75
2023-01-08T07:34:48.428Z,100114.34
2023-01-08T07:37:16.977Z,100103.03
2023-01-08T07:39:45.504Z,100108.25
2023-01-08T07:42:14.058Z,100112.63
2023-01-08T07:44:44.107Z,100107.38
2023-01-08T07:47:12.610Z,100103.03
2023-01-08T07:49:41.125Z,100109.13
2023-01-08T07:52:09.781Z,100121.28
2023-01-08T07:54:38.336Z,100119.53
2023-01-08T07:57:07.106Z,100113.44
2023-01-08T07:59:35.731Z,100131.72
2023-01-08T08:02:05.977Z,100120.44
2023-01-08T08:04:34.702Z,100116.94
2023-01-08T08:07:03.283Z,100111.75
2023-01-08T08:09:32.149Z,100108.28
2023-01-08T08:12:00.684Z,100113.50
2023-01-08T08:14:29.237Z,100105.69
2023-01-08T08:16:57.798Z,100110.91
2023-01-08T08:19:27.937Z,100103.06
2023-01-08T08:21:56.340Z,100096.16
2023-01-08T08:24:24.862Z,100097.88
2023-01-08T08:26:54.402Z,100095.25
2023-01-08T08:29:22.986Z,100090.06
2023-01-08T08:31:51.797Z,100082.25
2023-01-08T08:34:22.674Z,100082.22
2023-01-08T08:36:52.742Z,100067.44
2023-01-08T08:39:21.694Z,100089.22
2023-01-08T08:41:50.312Z,100077.00
2023-01-08T08:44:18.861Z,100082.22
2023-01-08T08:46:47.354Z,100086.59
2023-01-08T08:49:15.777Z,100081.34
2023-01-08T08:51:44.267Z,100075.28
2023-01-08T08:54:14.573Z,100077.88
2023-01-08T08:56:43.198Z,100070.94
2023-01-08T08:59:13.350Z,100070.94
2023-01-08T09:01:42.175Z,100074.41
2023-01-08T09:04:10.745Z,100075.25
2023-01-08T09:06:39.434Z,100058.75
2023-01-08T09:09:07.842Z,100072.66
2023-01-08T09:11:38.156Z,100071.78
2023-01-08T09:14:06.733Z,100064.81
2023-01-08T09:16:37.118Z,100063.94
2023-01-08T09:19:07.181Z,100066.53
2023-01-08T09:21:35.680Z,100063.06
2023-01-08T09:24:04.643Z,100076.97
2023-01-08T09:26:40.380Z,100077.00
2023-01-08T09:29:09.091Z,100080.47
2023-01-08T09:31:37.672Z,100071.75
2023-01-08T09:34:06.113Z,100080.47
2023-01-08T09:36:34.726Z,100086.53
2023-01-08T09:39:03.264Z,100083.06
2023-01-08T09:41:37.152Z,100076.91
2023-01-08T09:44:07.724Z,100091.66
2023-01-08T09:46:37.869Z,100086.44
2023-01-08T09:49:09.015Z,100089.91
2023-01-08T09:51:39.605Z,100090.81
2023-01-08T09:54:08.622Z,100085.59
2023-01-08T09:56:39.309Z,100087.31
2023-01-08T09:59:07.831Z,100093.41
2023-01-08T10:01:41.218Z,100093.41
2023-01-08T10:04:18.469Z,100096.00
2023-01-08T10:06:54.167Z,100083.81
2023-01-08T10:09:28.115Z,100081.19
2023-01-08T10:12:03.463Z,100077.72
2023-01-08T10:14:37.674Z,100078.56
2023-01-08T10:17:14.325Z,100067.22
2023-01-08T10:19:43.071Z,100074.13
2023-01-08T10:22:17.015Z,100067.13
2023-01-08T10:24:46.497Z,100069.78
2023-01-08T10:27:20.675Z,100052.34
2023-01-08T10:29:51.258Z,100051.50
2023-01-08T10:32:26.319Z,100059.34
2023-01-08T10:34:58.071Z,100054.06
2023-01-08T10:37:31.166Z,100046.25
2023-01-08T10:40:09.086Z,100040.16
2023-01-08T10:42:39.253Z,100045.38
2023-01-08T10:45:17.185Z,100046.25
2023-01-08T10:47:49.657Z,100037.50
2023-01-08T10:50:24.340Z,100035.75
2023-01-08T10:52:58.765Z,100030.53
2023-01-08T10:55:31.646Z,100029.63
2023-01-08T10:58:04.356Z,100029.63
2023-01-08T11:00:35.864Z,100032.22
2023-01-08T11:03:07.490Z,100027.84
2023-01-08T11:05:39.561Z,100026.13
2023-01-08T11:08:15.106Z,100022.59
2023-01-08T11:10:44.006Z,100029.56
2023-01-08T11:13:20.685Z,100020.00
2023-01-08T11:16:04.836Z,100009.50
2023-01-08T11:18:43.941Z,100020.84
2023-01-08T11:21:21.946Z,100010.34
2023-01-08T11:24:05.757Z,100009.44
2023-01-08T11:26:36.250Z,100011.16
2023-01-08T11:29:14.126Z,100004.19
2023-01-08T11:31:49.447Z,99997.19
2023-01-08T11:34:23.671Z,99994.53
2023-01-08T11:36:58.370Z,99992.75
2023-01-08T11:39:27.463Z,100002.25
2023-01-08T11:42:22.458Z,99983.84
2023-01-08T11:45:12.793Z,99979.44
2023-01-08T11:48:06.224Z,99974.19
2023-01-08T11:50:42.474Z,99975.88
2023-01-08T11:53:26.016Z,99970.56
2023-01-08T11:56:12.338Z,99974.84
2023-01-08T11:59:05.153Z,99967.94
2023-01-08T12:01:50.840Z,99954.00
2023-01-08T12:05:02.742Z,99966.25
2023-01-08T12:07:39.026Z,99956.63
2023-01-08T12:10:24.606Z,99953.16
2023-01-08T12:13:11.985Z,99951.28
2023-01-08T12:15:52.446Z,99952.16
2023-01-08T12:18:37.538Z,99950.38
2023-01-08T12:21:14.934Z,99948.50
2023-01-08T12:24:14.504Z,99953.59
2023-01-08T12:26:52.727Z,99940.53
2023-01-08T12:29:55.930Z,99927.44
2023-01-08T12:32:31.655Z,99942.25
2023-01-08T12:35:10.730Z,99931.78
2023-01-08T12:37:51.872Z,99935.28
2023-01-08T12:40:26.349Z,99930.97
2023-01-08T12:43:01.274Z,99924.03
2023-01-08T12:45:34.216Z,99934.50
2023-01-08T12:48:09.086Z,99930.97
2023-01-08T12:50:53.922Z,99922.19
2023-01-08T12:53:32.696Z,99912.50
2023-01-08T12:56:09.596Z,99918.59
2023-01-08T12:58:55.824Z,99906.41
2023-01-08T13:01:34.239Z,99904.66
2023-01-08T13:04:06.373Z,99894.13
2023-01-08T13:06:37.258Z,99895.75
2023-01-08T13:09:06.257Z,99888.72
2023-01-08T13:11:38.530Z,99895.56
2023-01-08T13:14:10.204Z,99891.03
2023-01-08T13:16:41.433Z,99879.38
2023-01-08T13:19:26.022Z,99875.38
2023-01-08T13:21:58.287Z,99871.84
2023-01-08T13:24:32.755Z,99880.66
2023-01-08T13:27:28.729Z,99871.09
2023-01-08T13:30:02.190Z,99869.59
2023-01-08T13:32:45.627Z,99860.25
2023-01-08T13:35:24.422Z,99854.75
2023-01-08T13:38:14.648Z,99851.19
2023-01-08T13:40:57.736Z,99847.31
2023-01-08T13:43:31.850Z,99836.78
2023-01-08T13:46:14.599Z,99839.16
2023-01-08T13:48:56.450Z,99836.13
2023-01-08T13:51:43.852Z,99824.28
2023-01-08T13:54:36.622Z,99822.00
2023-01-08T13:57:13.145Z,99821.31
2023-01-08T13:59:44.736Z,99814.47
2023-01-08T14:02:32.633Z,99815.53
2023-01-08T14:05:02.897Z,99817.41
2023-01-08T14:07:31.924Z,99820.03
2023-01-08T14:10:13.590Z,99812.91
2023-01-08T14:12:42.499Z,99798.03
2023-01-08T14:15:19.372Z,99792.88
2023-01-08T14:17:48.176Z,99805.13
2023-01-08T14:20:28.052Z,99799.94
2023-01-08T14:22:57.149Z,99800.00
2023-01-08T14:25:27.106Z,99800.84
2023-01-08T14:28:01.868Z,99805.25
2023-01-08T14:30:31.371Z,99801.84
2023-01-08T14:33:01.839Z,99802.88
2023-01-08T14:35:34.341Z,99805.63
2023-01-08T14:38:05.815Z,99802.19
2023-01-08T14:40:41.471Z,99812.63
2023-01-08T14:43:13.148Z,99803.75
2023-01-08T14:45:49.406Z,99804.53
2023-01-08T14:48:25.465Z,99805.25
2023-01-08T14:51:08.232Z,99793.06
2023-01-08T14:53:39.264Z,99795.81
2023-01-08T14:56:13.700Z,99792.56
2023-01-08T14:58:45.999Z,99797.88
2023-01-08T15:01:19.498Z,99798.91
2023-01-08T15:03:50.184Z,99796.41
2023-01-08T15:06:29.238Z,99799.09
2023-01-08T15:08:59.655Z,99795.72
2023-01-08T15:11:32.509Z,99795.81
2023-01-08T15:14:01.046Z,99804.56
2023-01-08T15:16:33.831Z,99807.25
2023-01-08T15:19:08.025Z,99809.06
2023-01-08T15:21:37.177Z,99799.56
2023-01-08T15:24:08.418Z,99801.34
2023-01-08T15:26:43.912Z,99801.41
2023-01-08T15:29:21.047Z,99797.13
2023-01-08T15:31:50.553Z,99790.25
2023-01-08T15:34:21.198Z,99790.31
2023-01-08T15:36:49.874Z,99789.47
2023-01-08T15:39:18.487Z,99792.16
2023-01-08T15:42:06.391Z,99790.47
2023-01-08T15:44:34.896Z,99780.94
2023-01-08T15:47:03.465Z,99774.00
2023-01-08T15:49:32.172Z,99774.06
2023-01-08T15:52:00.608Z,99781.03
2023-01-08T15:54:29.226Z,99776.78
2023-01-08T15:56:59.319Z,99780.28
2023-01-08T15:59:27.895Z,99775.09
2023-01-08T16:01:56.784Z,99777.75
2023-01-08T16:04:25.241Z,99775.13
2023-01-08T16:06:53.671Z,99776.00
2023-01-08T16:09:22.288Z,99776.91
2023-01-08T16:11:52.562Z,99779.53
2023-01-08T16:14:22.679Z,99782.13
2023-01-08T16:16:51.251Z,99772.59
2023-01-08T16:19:19.828Z,99764.75
2023-01-08T16:21:50.285Z,99760.44
2023-01-08T16:24:18.833Z,99743.94
2023-01-08T16:26:47.412Z,99753.47
2023-01-08T16:29:15.923Z,99748.28
2023-01-08T16:31:49.188Z,99749.19
2023-01-08T16:34:18.533Z,99742.25
2023-01-08T16:36:47.166Z,99742.25
2023-01-08T16:39:15.639Z,99744.88
2023-01-08T16:41:44.260Z,99743.16
2023-01-08T16:44:20.511Z,99747.47
2023-01-08T16:46:51.296Z,99747.47
2023-01-08T16:49:19.754Z,99742.25
2023-01-08T16:51:48.339Z,99739.69
2023-01-08T16:54:17.806Z,99732.75
2023-01-08T16:56:46.502Z,99744.91
2023-01-08T16:59:22.815Z,99739.69
2023-01-08T17:01:53.858Z,99736.25
2023-01-08T17:04:22.689Z,99730.16
2023-01-08T17:06:51.238Z,99735.38
2023-01-08T17:09:19.683Z,99731.03
2023-01-08T17:11:48.730Z,99738.84
2023-01-08T17:14:20.274Z,99732.78
2023-01-08T17:16:49.275Z,99729.34
2023-01-08T17:19:19.243Z,99731.09
2023-01-08T17:21:48.503Z,99739.78
2023-01-08T17:24:17.076Z,99742.41
2023-01-08T17:26:45.826Z,99741.53
2023-01-08T17:29:14.641Z,99736.34
2023-01-08T17:31:43.239Z,99738.97
2023-01-08T17:34:14.948Z,99732.03
2023-01-08T17:36:45.083Z,99732.91
2023-01-08T17:39:15.538Z,99735.50
2023-01-08T17:42:01.925Z,99729.44
2023-01-08T17:44:31.272Z,99732.91
2023-01-08T17:46:59.949Z,99730.31
2023-01-08T17:49:30.642Z,99731.19
2023-01-08T17:52:00.839Z,99732.94
2023-01-08T17:54:29.361Z,99726.88
2023-01-08T17:56:57.919Z,99725.13
2023-01-08T17:59:26.396Z,99726.88
2023-01-08T18:01:55.597Z,99723.41
2023-01-08T18:04:24.337Z,99720.78
2023-01-08T18:06:52.827Z,99723.38
2023-01-08T18:09:23.052Z,99715.59
2023-01-08T18:11:52.043Z,99726.00
2023-01-08T18:14:21.111Z,99720.78
2023-01-08T18:16:50.195Z,99725.16
2023-01-08T18:19:20.107Z,99718.19
2023-01-08T18:21:49.314Z,99727.75
2023-01-08T18:24:17.939Z,99703.44
2023-01-08T18:26:47.883Z,99711.25
2023-01-08T18:29:16.361Z,99704.28
2023-01-08T18:31:46.408Z,99695.56
2023-01-08T18:34:19.083Z,99686.91
2023-01-08T18:36:47.550Z,99691.25
2023-01-08T18:39:16.081Z,99681.72
2023-01-08T18:42:10.464Z,99681.72
2023-01-08T18:44:40.259Z,99685.19
2023-01-08T18:47:08.757Z,99673.91
2023-01-08T18:49:37.525Z,99660.00
2023-01-08T18:52:06.426Z,99666.06
2023-01-08T18:54:35.521Z,99661.72
2023-01-08T18:57:04.229Z,99660.03
2023-01-08T18:59:32.730Z,99656.50
2023-01-08T19:02:02.898Z,99653.91
2023-01-08T19:04:31.491Z,99657.38
2023-01-08T19:07:00.043Z,99647.81
2023-01-08T19:09:28.501Z,99646.97
2023-01-08T19:11:57.170Z,99635.69
2023-01-08T19:14:25.771Z,99635.69
2023-01-08T19:16:54.326Z,99624.38
2023-01-08T19:19:24.542Z,99622.66
2023-01-08T19:21:53.237Z,99614.00
2023-01-08T19:24:21.671Z,99607.91
2023-01-08T19:26:50.282Z,99606.16
2023-01-08T19:29:18.841Z,99603.56
2023-01-08T19:31:48.403Z,99596.63
2023-01-08T19:34:16.994Z,99594.06
2023-01-08T19:36:46.844Z,99599.28
2023-01-08T19:39:15.236Z,99587.13
2023-01-08T19:42:01.488Z,99593.22
2023-01-08T19:44:30.024Z,99595.84
2023-01-08T19:46:58.533Z,99587.16
2023-01-08T19:49:26.992Z,99583.72
2023-01-08T19:51:56.803Z,99588.94
2023-01-08T19:54:26.044Z,99585.47
2023-01-08T19:56:54.542Z,99579.41
2023-01-08T19:59:23.424Z,99575.94
2023-01-08T20:01:51.988Z,99574.22
2023-01-08T20:04:20.573Z,99568.16
2023-01-08T20:06:49.201Z,99560.34
2023-01-08T20:09:19.318Z,99567.31
2023-01-08T20:11:47.764Z,99545.63
2023-01-08T20:14:16.243Z,99553.41
2023-01-08T20:16:44.856Z,99547.34
2023-01-08T20:19:13.424Z,99542.16
2023-01-08T20:21:41.950Z,99538.69
2023-01-08T20:24:14.367Z,99537.78
2023-01-08T20:26:46.514Z,99520.47
2023-01-08T20:29:16.653Z,99523.06
2023-01-08T20:31:45.491Z,99529.13
2023-01-08T20:34:17.103Z,99525.66
2023-01-08T20:36:48.242Z,99516.97
2023-01-08T20:39:19.589Z,99517.81
2023-01-08T20:42:01.069Z,99516.09
2023-01-08T20:44:32.779Z,99516.94
2023-01-08T20:47:01.828Z,99515.22
2023-01-08T20:49:30.390Z,99515.25
2023-01-08T20:52:00.304Z,99516.09
2023-01-08T20:54:31.237Z,99505.69
2023-01-08T20:57:01.761Z,99514.38
2023-01-08T20:59:31.252Z,99513.50
2023-01-08T21:01:59.755Z,99507.47
2023-01-08T21:04:28.341Z,99496.19
2023-01-08T21:06:57.353Z,99497.91
2023-01-08T21:09:25.999Z,99490.09
2023-01-08T21:11:54.357Z,99489.25
2023-01-08T21:14:24.182Z,99476.25
2023-01-08T21:16:52.597Z,99477.09
2023-01-08T21:19:21.233Z,99473.66
2023-01-08T21:21:49.710Z,99462.38
2023-01-08T21:24:18.402Z,99461.53
2023-01-08T21:26:47.506Z,99457.19
2023-01-08T21:29:17.618Z,99455.47
2023-01-08T21:31:47.637Z,99449.41
2023-01-08T21:34:16.418Z,99446.81
2023-01-08T21:36:45.030Z,99445.06
2023-01-08T21:39:13.817Z,99434.66
2023-01-08T21:41:59.669Z,99425.16
2023-01-08T21:44:46.404Z,99426.88
2023-01-08T21:47:18.815Z,99425.13
2023-01-08T21:49:47.984Z,99413.84
2023-01-08T21:52:34.118Z,99409.50
2023-01-08T21:55:03.020Z,99406.00
2023-01-08T21:57:31.504Z,99405.97
2023-01-08T22:00:00.126Z,99399.00
2023-01-08T22:02:30.110Z,99406.78
2023-01-08T22:04:58.880Z,99394.63
2023-01-08T22:07:27.609Z,99397.16
2023-01-08T22:09:56.124Z,99397.16
2023-01-08T22:12:25.644Z,99392.84
2023-01-08T22:14:55.238Z,99392.81
2023-01-08T22:17:25.623Z,99386.72
2023-01-08T22:19:55.872Z,99378.84
2023-01-08T22:22:24.494Z,99372.75
2023-01-08T22:24:53.146Z,99375.31
2023-01-08T22:27:22.378Z,99380.53
2023-01-08T22:29:51.093Z,99383.13
2023-01-08T22:32:19.724Z,99366.63
2023-01-08T22:34:48.336Z,99367.50
2023-01-08T22:37:21.713Z,99359.72
2023-01-08T22:39:50.492Z,99366.66
2023-01-08T22:42:19.337Z,99352.78
2023-01-08T22:44:47.910Z,99351.81
2023-01-08T22:47:16.443Z,99345.72
2023-01-08T22:49:45.025Z,99348.28
2023-01-08T22:52:13.545Z,99346.56
2023-01-08T22:54:44.097Z,99338.72
2023-01-08T22:57:12.974Z,99337.84
2023-01-08T22:59:41.422Z,99344.81
2023-01-08T23:02:09.882Z,99332.75
2023-01-08T23:04:38.490Z,99341.50
2023-01-08T23:07:07.253Z,99338.13
2023-01-08T23:09:35.744Z,99333.75
2023-01-08T23:12:06.176Z,99328.59
2023-01-08T23:14:34.619Z,99340.75
2023-01-08T23:17:03.553Z,99327.78
2023-01-08T23:19:32.014Z,99329.56
2023-01-08T23:22:00.370Z,99334.72
2023-01-08T23:24:30.728Z,99319.16
2023-01-08T23:26:59.793Z,99326.94
2023-01-08T23:29:32.205Z,99329.53
2023-01-08T23:32:00.842Z,99326.03
2023-01-08T23:34:29.423Z,99312.97
2023-01-08T23:36:57.933Z,99322.50
2023-01-08T23:39:28.325Z,99311.19
2023-01-08T23:41:57.414Z,99315.47
2023-01-08T23:44:25.933Z,99318.84
2023-01-08T23:46:55.733Z,99309.25
2023-01-08T23:49:24.263Z,99313.56
2023-01-08T23:51:52.769Z,99300.47
2023-01-08T23:54:21.191Z,99305.66
2023-01-08T23:56:50.383Z,99295.19
2023-01-08T23:59:18.890Z,99300.34
